Time;durP1;ratioP1;P1;durP2;ratioP2;P2;SDS_P1;SDS_P2;PMS_P1;PMS_P2;Temp;Humidity;BMP_temperature;BMP_pressure;BME280_temperature;BME280_humidity;BME280_pressure;Samples;Min_cycle;Max_cycle;Signal;HPM_P1;HPM_P2
2021/01/25 00:00:33;;;;;;;2.93;0.80;;;;;;;2.25;78.08;99270.91;5073972;28;20295;-71
2021/01/25 00:03:00;;;;;;;0.70;0.70;;;;;;;2.25;78.21;99265.63;5064701;28;20535;-71
2021/01/25 00:05:31;;;;;;;1.67;0.90;;;;;;;2.18;78.04;99255.38;5071397;28;20200;-71
2021/01/25 00:07:59;;;;;;;0.73;0.73;;;;;;;2.05;77.46;99261.44;5067042;28;20291;-71
2021/01/25 00:10:26;;;;;;;0.93;0.80;;;;;;;2.03;77.86;99261.53;5068018;28;20292;-71
2021/01/25 00:12:53;;;;;;;1.07;0.97;;;;;;;2.04;77.74;99257.94;5077088;28;20227;-71
2021/01/25 00:15:20;;;;;;;1.40;1.03;;;;;;;2.00;77.21;99251.13;5071960;28;20237;-71
2021/01/25 00:17:47;;;;;;;1.27;1.13;;;;;;;1.84;77.13;99255.59;5070368;28;20200;-71
2021/01/25 00:20:15;;;;;;;0.67;0.67;;;;;;;1.90;78.09;99249.97;5066590;28;20212;-71
2021/01/25 00:22:43;;;;;;;1.77;0.97;;;;;;;1.91;78.22;99246.38;5070363;28;20211;-71
2021/01/25 00:25:11;;;;;;;1.67;0.93;;;;;;;1.88;77.81;99253.63;5069474;28;20196;-71
2021/01/25 00:27:38;;;;;;;1.37;0.93;;;;;;;1.89;78.03;99248.25;5076958;28;20192;-71
2021/01/25 00:30:06;;;;;;;1.00;0.90;;;;;;;1.91;78.02;99243.72;5072061;28;20286;-71
2021/01/25 00:32:34;;;;;;;2.40;0.90;;;;;;;1.85;77.96;99247.56;5067895;28;20708;-71
2021/01/25 00:35:01;;;;;;;1.00;1.00;;;;;;;1.93;78.28;99238.34;5070452;28;20306;-71
2021/01/25 00:37:30;;;;;;;3.27;0.93;;;;;;;1.94;78.30;99235.59;5070931;28;20194;-71
2021/01/25 00:39:58;;;;;;;4.83;1.80;;;;;;;1.95;77.85;99241.75;5067012;28;20203;-71
2021/01/25 00:42:25;;;;;;;413.63;195.03;;;;;;;1.85;77.64;99241.44;5072518;28;20207;-71
2021/01/25 00:44:52;;;;;;;16.07;7.93;;;;;;;1.96;78.12;99232.88;5059996;28;20219;-71
2021/01/25 00:47:19;;;;;;;1.70;1.60;;;;;;;1.84;78.25;99223.84;5079510;28;20256;-71
2021/01/25 00:49:47;;;;;;;1.80;1.30;;;;;;;1.96;78.34;99232.88;5070210;28;20203;-71
2021/01/25 00:52:14;;;;;;;4.53;2.23;;;;;;;2.02;78.57;99237.81;5056287;28;20206;-71
2021/01/25 00:54:41;;;;;;;2.23;1.33;;;;;;;2.09;79.04;99229.41;5066622;28;20232;-71
2021/01/25 00:57:09;;;;;;;1.17;1.03;;;;;;;1.93;78.69;99215.38;5070681;28;20200;-71
2021/01/25 00:59:36;;;;;;;2.30;1.40;;;;;;;2.10;78.98;99223.19;5070202;28;20298;-71
2021/01/25 01:02:04;;;;;;;0.80;0.80;;;;;;;2.17;78.75;99221.06;5069664;28;20634;-71
2021/01/25 01:04:31;;;;;;;1.17;1.07;;;;;;;2.15;78.57;99239.69;5071134;28;20646;-71
2021/01/25 01:06:58;;;;;;;0.97;0.80;;;;;;;2.17;78.43;99229.84;5071020;28;20199;-71
2021/01/25 01:09:25;;;;;;;7.53;1.10;;;;;;;2.15;78.30;99234.38;5070531;28;20206;-72
2021/01/25 01:11:52;;;;;;;1.30;1.20;;;;;;;2.16;78.69;99236.09;5073336;28;20193;-71
2021/01/25 01:14:20;;;;;;;1.37;1.27;;;;;;;2.22;78.84;99231.38;5056891;28;20235;-71
2021/01/25 01:16:47;;;;;;;3.10;1.60;;;;;;;2.25;78.78;99240.00;5082903;28;20294;-71
2021/01/25 01:19:15;;;;;;;0.90;0.77;;;;;;;2.22;78.40;99239.31;5070182;28;20208;-71
2021/01/25 01:21:42;;;;;;;1.80;1.10;;;;;;;2.01;77.77;99199.03;5070254;28;20222;-70
2021/01/25 01:24:09;;;;;;;3.30;0.90;;;;;;;2.24;78.56;99216.25;5070565;28;20211;-71
2021/01/25 01:26:37;;;;;;;0.90;0.80;;;;;;;2.00;78.21;99187.59;5063180;28;20595;-71
2021/01/25 01:29:04;;;;;;;2.83;1.40;;;;;;;2.23;78.66;99214.53;5075952;28;20192;-71
2021/01/25 01:31:32;;;;;;;1.37;0.90;;;;;;;2.22;78.81;99220.78;5073038;28;20200;-71
2021/01/25 01:33:59;;;;;;;1.27;0.90;;;;;;;1.65;77.74;99139.34;5070214;28;20654;-71
2021/01/25 01:36:26;;;;;;;0.80;0.70;;;;;;;2.10;78.50;99225.81;5058334;28;20287;-71
2021/01/25 01:38:54;;;;;;;0.70;0.70;;;;;;;2.10;78.45;99215.22;5071253;28;20223;-70
2021/01/25 01:41:21;;;;;;;0.73;0.73;;;;;;;2.06;78.70;99221.66;5063180;28;20639;-71
2021/01/25 01:43:48;;;;;;;0.90;0.90;;;;;;;2.08;78.83;99222.41;5076583;28;20198;-71
2021/01/25 01:46:16;;;;;;;2.47;0.93;;;;;;;2.05;78.55;99211.16;5070848;28;20195;-71
2021/01/25 01:48:44;;;;;;;5.20;0.93;;;;;;;1.92;78.17;99218.97;5069357;28;20197;-71
2021/01/25 01:51:12;;;;;;;6.70;1.20;;;;;;;1.73;78.01;99179.44;5064746;28;20208;-71
2021/01/25 01:53:39;;;;;;;0.77;0.70;;;;;;;1.95;78.17;99210.84;5070440;28;20237;-71
2021/01/25 01:56:06;;;;;;;0.73;0.70;;;;;;;1.79;77.44;99213.50;5068686;28;20689;-71
2021/01/25 01:58:33;;;;;;;1.43;0.80;;;;;;;1.83;78.25;99215.03;5070698;28;20204;-71
2021/01/25 02:01:01;;;;;;;1.20;1.10;;;;;;;1.78;78.09;99209.16;5067354;28;20559;-71
2021/01/25 02:03:28;;;;;;;1.37;1.03;;;;;;;1.71;77.89;99206.94;5060217;28;20224;-71
2021/01/25 02:05:57;;;;;;;0.57;0.57;;;;;;;1.78;78.40;99205.66;5060077;28;20200;-71
2021/01/25 02:08:25;;;;;;;0.90;0.70;;;;;;;1.90;78.34;99206.75;5054606;28;20207;-71
2021/01/25 02:10:55;;;;;;;2.40;0.63;;;;;;;1.90;78.59;99204.97;5061556;28;20762;-71
2021/01/25 02:13:24;;;;;;;0.80;0.80;;;;;;;1.79;78.06;99210.84;5064779;28;20247;-71
2021/01/25 02:15:52;;;;;;;0.80;0.80;;;;;;;1.84;78.73;99205.31;5066793;28;20322;-71
2021/01/25 02:18:19;;;;;;;0.70;0.70;;;;;;;1.92;78.25;99211.03;5064000;28;20219;-71
2021/01/25 02:20:47;;;;;;;4.97;0.80;;;;;;;1.84;78.44;99205.31;5065663;28;20205;-71
2021/01/25 02:23:43;;;;;;;0.70;0.70;;;;;;;1.91;78.47;99205.81;5064878;28;20197;-71
2021/01/25 02:26:35;;;;;;;0.80;0.80;;;;;;;1.86;78.85;99211.38;5064681;28;20208;-71
2021/01/25 02:29:04;;;;;;;0.80;0.80;;;;;;;1.75;77.99;99200.53;5065760;28;20219;-71
2021/01/25 02:31:32;;;;;;;5.97;1.00;;;;;;;1.91;79.01;99208.47;5065101;28;20288;-71
2021/01/25 02:34:01;;;;;;;3.37;0.90;;;;;;;1.84;78.52;99213.25;5072499;28;20204;-71
2021/01/25 02:36:29;;;;;;;4.50;2.73;;;;;;;1.88;78.85;99217.44;5061489;28;20205;-71
2021/01/25 02:39:00;;;;;;;628.07;206.90;;;;;;;1.94;79.01;99218.88;5067816;28;20280;-71
2021/01/25 02:41:29;;;;;;;43.53;16.00;;;;;;;1.80;79.55;99186.09;5067878;28;20674;-71
2021/01/25 02:43:58;;;;;;;7.23;2.37;;;;;;;2.01;79.54;99210.47;5074018;28;20209;-71
2021/01/25 02:46:28;;;;;;;4.40;1.43;;;;;;;1.79;79.47;99173.81;5082237;28;20304;-71
2021/01/25 02:48:57;;;;;;;1.43;1.03;;;;;;;1.98;79.16;99217.75;5072954;28;20601;-71
2021/01/25 02:51:24;;;;;;;4.10;2.03;;;;;;;1.84;79.73;99197.38;5073128;28;20208;-71
2021/01/25 02:53:51;;;;;;;2.90;1.50;;;;;;;2.06;79.48;99221.66;5067312;28;20190;-71
2021/01/25 02:56:18;;;;;;;2.77;2.10;;;;;;;2.15;79.51;99223.78;5071008;28;20233;-71
2021/01/25 02:58:45;;;;;;;1.83;1.23;;;;;;;1.96;78.76;99201.97;5075437;28;20202;-71
2021/01/25 03:01:13;;;;;;;0.80;0.80;;;;;;;2.15;79.02;99220.28;5078944;28;20314;-71
2021/01/25 03:03:41;;;;;;;1.93;1.30;;;;;;;2.12;78.99;99218.66;5075058;28;20209;-71
2021/01/25 03:06:11;;;;;;;6.90;1.93;;;;;;;2.18;79.14;99222.75;5069551;28;20196;-71
2021/01/25 03:08:38;;;;;;;1.37;1.10;;;;;;;2.21;79.04;99219.06;5072063;28;20260;-71
2021/01/25 03:11:06;;;;;;;1.10;0.87;;;;;;;2.01;78.89;99181.38;5072199;28;20212;-71
2021/01/25 03:13:33;;;;;;;1.80;1.07;;;;;;;2.14;78.10;99222.09;5076252;28;20243;-70
2021/01/25 03:16:02;;;;;;;1.73;1.60;;;;;;;2.18;78.81;99220.13;5076648;28;20228;-71
2021/01/25 03:18:29;;;;;;;3.03;1.10;;;;;;;2.06;77.96;99218.16;5080468;28;20567;-71
2021/01/25 03:20:57;;;;;;;0.77;0.77;;;;;;;1.95;78.38;99220.56;5068232;28;20239;-71
2021/01/25 03:23:25;;;;;;;3.50;1.30;;;;;;;2.02;78.39;99222.78;5072526;28;20200;-71
2021/01/25 03:25:52;;;;;;;1.60;1.00;;;;;;;2.01;77.84;99210.47;5066702;28;20684;-71
2021/01/25 03:28:19;;;;;;;0.77;0.77;;;;;;;1.99;77.79;99211.50;5080068;28;20630;-71
2021/01/25 03:30:46;;;;;;;0.70;0.70;;;;;;;1.87;77.84;99215.72;5074491;28;20203;-71
2021/01/25 03:33:13;;;;;;;0.70;0.70;;;;;;;1.60;77.24;99177.59;5073019;28;20206;-71
2021/01/25 03:35:41;;;;;;;1.33;0.90;;;;;;;1.82;77.76;99215.09;5072086;28;20235;-71
2021/01/25 03:38:09;;;;;;;1.00;0.90;;;;;;;1.65;77.83;99171.09;5062479;28;20659;-71
2021/01/25 03:40:36;;;;;;;0.80;0.80;;;;;;;1.84;77.29;99208.81;5067108;28;20228;-71
2021/01/25 03:43:03;;;;;;;0.70;0.70;;;;;;;1.59;76.91;99202.34;5064831;28;20291;-71
2021/01/25 03:45:30;;;;;;;3.77;0.93;;;;;;;1.72;77.50;99208.66;5072923;28;20210;-71
2021/01/25 03:47:57;;;;;;;1.87;0.97;;;;;;;1.61;77.17;99208.41;5079832;28;20199;-71
2021/01/25 03:50:25;;;;;;;0.70;0.70;;;;;;;1.42;77.35;99212.06;5070752;28;20214;-71
2021/01/25 03:52:52;;;;;;;0.67;0.60;;;;;;;1.39;77.51;99180.50;5068012;28;20584;-71
2021/01/25 03:55:20;;;;;;;0.73;0.73;;;;;;;1.59;77.66;99205.00;5062681;28;20221;-71
2021/01/25 03:57:47;;;;;;;0.80;0.80;;;;;;;1.60;77.25;99198.75;5067054;28;20261;-71
2021/01/25 04:00:15;;;;;;;6.00;0.77;;;;;;;1.64;77.71;99189.72;5068042;28;20543;-71
2021/01/25 04:02:42;;;;;;;0.73;0.53;;;;;;;1.66;77.68;99198.41;5060865;28;20197;-72
2021/01/25 04:05:10;;;;;;;3.37;1.00;;;;;;;1.55;77.33;99199.03;5067767;28;20195;-71
2021/01/25 04:07:37;;;;;;;1.67;1.10;;;;;;;1.49;77.57;99194.06;5070490;28;20201;-71
2021/01/25 04:10:06;;;;;;;0.57;0.57;;;;;;;1.48;77.50;99195.84;5072309;28;20209;-71
2021/01/25 04:12:36;;;;;;;8.20;0.97;;;;;;;1.10;78.04;99203.25;5072105;28;20227;-71
2021/01/25 04:15:04;;;;;;;1.23;1.00;;;;;;;0.80;78.18;99165.25;5072267;28;20233;-71
2021/01/25 04:17:31;;;;;;;5.00;1.00;;;;;;;0.89;78.58;99202.59;5071056;28;20317;-71
2021/01/25 04:19:58;;;;;;;0.80;0.80;;;;;;;0.90;78.53;99196.38;5070964;28;20730;-71
2021/01/25 04:22:25;;;;;;;0.83;0.80;;;;;;;0.86;78.71;99200.13;5070507;28;20234;-71
2021/01/25 04:24:52;;;;;;;0.80;0.80;;;;;;;0.98;78.50;99197.78;5071641;28;20198;-71
2021/01/25 04:27:20;;;;;;;0.57;0.57;;;;;;;0.97;78.71;99202.22;5071650;28;20283;-71
2021/01/25 04:29:47;;;;;;;1.07;0.70;;;;;;;0.84;78.68;99196.72;5070408;28;20205;-71
2021/01/25 04:32:15;;;;;;;0.87;0.87;;;;;;;0.92;78.69;99199.81;5070969;28;20204;-71
2021/01/25 04:34:42;;;;;;;1.70;0.90;;;;;;;0.95;78.48;99200.59;5070515;28;20213;-71
2021/01/25 04:37:09;;;;;;;1.07;0.97;;;;;;;1.02;78.36;99196.66;5071208;28;20289;-71
2021/01/25 04:39:37;;;;;;;0.67;0.67;;;;;;;1.02;78.38;99200.16;5071236;28;20238;-71
2021/01/25 04:42:05;;;;;;;0.80;0.80;;;;;;;1.01;78.07;99201.09;5071361;28;20207;-71
2021/01/25 04:44:32;;;;;;;0.57;0.57;;;;;;;0.96;77.93;99207.56;5070681;28;20208;-71
2021/01/25 04:47:02;;;;;;;0.70;0.70;;;;;;;0.80;78.51;99202.25;5070835;28;20197;-70
2021/01/25 04:49:32;;;;;;;2.50;1.17;;;;;;;0.70;78.60;99201.03;5048858;28;20241;-71
2021/01/25 04:52:00;;;;;;;1.30;0.60;;;;;;;0.76;78.66;99195.41;5028111;28;20205;-71
2021/01/25 04:54:28;;;;;;;2.57;0.60;;;;;;;0.85;78.38;99187.84;5025135;28;20258;-71
2021/01/25 04:56:59;;;;;;;1.13;0.70;;;;;;;0.86;78.74;99192.19;5025147;28;20267;-71
2021/01/25 04:59:27;;;;;;;0.83;0.83;;;;;;;0.97;79.10;99183.72;5020110;28;20198;-71
2021/01/25 05:01:55;;;;;;;1.17;0.63;;;;;;;1.02;78.97;99194.88;5029346;28;20222;-71
2021/01/25 05:04:23;;;;;;;0.47;0.47;;;;;;;0.99;79.60;99191.56;5031105;28;20210;-71
2021/01/25 05:06:50;;;;;;;0.60;0.60;;;;;;;1.12;79.78;99195.22;5031330;28;20296;-71
2021/01/25 05:09:17;;;;;;;0.57;0.57;;;;;;;1.05;79.96;99186.78;5022176;28;20197;-70
2021/01/25 05:11:44;;;;;;;4.97;0.63;;;;;;;1.14;80.23;99188.06;5029330;28;20288;-69
2021/01/25 05:14:11;;;;;;;0.53;0.53;;;;;;;1.15;80.18;99187.13;5027853;28;20245;-69
2021/01/25 05:16:38;;;;;;;0.70;0.70;;;;;;;1.15;80.41;99187.97;5023333;28;20219;-71
2021/01/25 05:19:06;;;;;;;5.60;0.67;;;;;;;1.11;79.96;99188.25;5026953;28;20211;-68
2021/01/25 05:21:35;;;;;;;0.70;0.70;;;;;;;1.13;80.34;99194.28;5029876;28;20623;-68
2021/01/25 05:24:05;;;;;;;0.67;0.67;;;;;;;1.09;80.54;99192.75;5026579;28;20193;-69
2021/01/25 05:26:33;;;;;;;0.70;0.70;;;;;;;1.10;80.45;99194.47;5026511;28;20201;-69
2021/01/25 05:29:00;;;;;;;0.77;0.77;;;;;;;1.16;80.72;99183.56;5026048;28;20195;-69
2021/01/25 05:31:28;;;;;;;0.50;0.50;;;;;;;1.00;80.38;99188.84;5027177;28;20196;-69
2021/01/25 05:33:55;;;;;;;1.83;0.63;;;;;;;1.02;80.05;99201.97;5027053;28;20233;-69
2021/01/25 05:36:24;;;;;;;0.77;0.77;;;;;;;1.01;80.07;99192.31;5024264;28;20208;-69
2021/01/25 05:38:53;;;;;;;0.73;0.73;;;;;;;1.08;81.00;99186.63;5028593;28;20198;-69
2021/01/25 05:41:22;;;;;;;0.53;0.53;;;;;;;1.08;81.23;99181.34;5025510;28;20204;-68
2021/01/25 05:43:50;;;;;;;0.50;0.50;;;;;;;1.02;80.74;99189.59;5015013;28;20420;-70
2021/01/25 05:46:19;;;;;;;0.80;0.80;;;;;;;1.00;81.02;99177.41;5024357;28;20204;-71
2021/01/25 05:48:57;;;;;;;0.87;0.87;;;;;;;1.06;81.14;99169.13;5020434;28;20241;-69
2021/01/25 05:51:31;;;;;;;2.63;0.90;;;;;;;1.09;81.06;99171.63;5022918;28;20221;-69
2021/01/25 05:54:01;;;;;;;1.87;0.80;;;;;;;0.90;81.46;99151.47;5020402;28;20336;-69
2021/01/25 05:56:29;;;;;;;7.50;1.27;;;;;;;1.09;81.94;99168.97;5026684;28;20627;-69
2021/01/25 05:58:56;;;;;;;5.53;0.80;;;;;;;1.10;82.15;99168.03;5027266;28;20199;-70
2021/01/25 06:01:24;;;;;;;1.17;0.73;;;;;;;1.12;82.31;99161.72;5029644;28;20661;-70
2021/01/25 06:03:54;;;;;;;0.87;0.77;;;;;;;1.21;82.45;99171.78;5029526;28;20201;-71
2021/01/25 06:06:27;;;;;;;2.53;0.60;;;;;;;1.21;82.77;99163.84;5028565;28;20532;-70
2021/01/25 06:09:05;;;;;;;0.80;0.80;;;;;;;1.27;83.12;99165.31;5025358;28;20212;-70
2021/01/25 06:11:33;;;;;;;1.13;0.90;;;;;;;1.25;83.26;99159.28;5028041;28;20213;-70
2021/01/25 06:14:08;;;;;;;3.30;1.07;;;;;;;1.35;83.52;99173.69;5027675;28;20244;-69
2021/01/25 06:16:35;;;;;;;1.53;1.17;;;;;;;1.31;83.51;99173.94;5029954;28;20227;-69
2021/01/25 06:19:07;;;;;;;1.00;1.00;;;;;;;1.37;83.50;99178.88;5030485;28;20218;-70
2021/01/25 06:21:37;;;;;;;1.13;1.10;;;;;;;1.37;83.43;99176.25;5032398;28;20686;-69
2021/01/25 06:24:08;;;;;;;0.90;0.90;;;;;;;1.41;83.14;99180.41;5028666;28;20209;-70
2021/01/25 06:26:36;;;;;;;1.20;1.10;;;;;;;1.41;83.27;99186.56;5029463;28;20565;-70
2021/01/25 06:29:05;;;;;;;4.57;1.27;;;;;;;1.36;82.30;99185.97;5022049;28;20600;-70
2021/01/25 06:31:34;;;;;;;0.97;0.87;;;;;;;1.42;83.01;99184.75;5028944;28;20285;-70
2021/01/25 06:34:03;;;;;;;0.73;0.73;;;;;;;1.43;82.73;99184.69;5030391;28;20197;-70
2021/01/25 06:36:32;;;;;;;0.73;0.73;;;;;;;1.35;82.34;99178.13;5028403;28;20232;-70
2021/01/25 06:39:01;;;;;;;1.70;1.10;;;;;;;1.41;82.48;99193.63;5029604;28;20214;-74
2021/01/25 06:41:36;;;;;;;1.10;1.00;;;;;;;1.36;82.72;99193.91;5028470;28;20199;-75
2021/01/25 06:44:05;;;;;;;1.40;1.20;;;;;;;1.41;83.06;99189.19;5028768;28;20596;-75
2021/01/25 06:46:34;;;;;;;0.90;0.90;;;;;;;1.14;83.11;99145.78;5025349;28;20201;-75
2021/01/25 06:49:04;;;;;;;3.93;1.00;;;;;;;1.39;83.46;99180.50;5028133;28;20718;-76
2021/01/25 06:51:32;;;;;;;1.33;1.17;;;;;;;1.40;83.72;99174.28;5031687;28;20274;-75
2021/01/25 06:54:01;;;;;;;1.20;1.00;;;;;;;1.36;82.66;99177.19;5030223;28;20202;-75
2021/01/25 06:56:43;;;;;;;1.57;0.80;;;;;;;1.40;83.96;99170.78;5031194;28;20578;-75
2021/01/25 06:59:12;;;;;;;8.40;1.07;;;;;;;1.37;83.63;99182.38;5029720;28;20213;-75
2021/01/25 07:01:41;;;;;;;1.10;1.00;;;;;;;1.31;83.09;99177.44;5030162;28;20232;-75
2021/01/25 07:04:14;;;;;;;3.80;0.80;;;;;;;1.37;83.63;99179.72;5031351;28;20663;-75
2021/01/25 07:06:47;;;;;;;12.53;1.00;;;;;;;1.25;83.20;99172.50;5031436;28;20328;-76
2021/01/25 07:09:24;;;;;;;0.73;0.63;;;;;;;1.32;83.21;99162.44;5027177;28;20682;-75
2021/01/25 07:11:52;;;;;;;0.70;0.60;;;;;;;1.18;83.28;99148.16;5030282;28;20733;-75
2021/01/25 07:14:23;;;;;;;1.60;0.93;;;;;;;1.37;83.15;99173.59;5027469;28;20236;-75
2021/01/25 07:16:52;;;;;;;6.50;0.80;;;;;;;1.33;83.58;99175.56;5018416;28;20766;-74
2021/01/25 07:19:20;;;;;;;1.20;0.90;;;;;;;1.00;82.70;99137.78;5028869;28;20240;-74
2021/01/25 07:21:49;;;;;;;0.90;0.60;;;;;;;1.28;83.16;99182.03;5025077;28;20206;-74
2021/01/25 07:24:21;;;;;;;2.47;0.93;;;;;;;1.29;82.66;99178.47;5017526;28;20627;-77
2021/01/25 07:26:53;;;;;;;0.50;0.50;;;;;;;1.32;83.40;99175.66;5023047;28;20200;-75
2021/01/25 07:29:20;;;;;;;0.80;0.80;;;;;;;1.25;83.10;99180.44;5029563;28;20295;-75
2021/01/25 07:31:48;;;;;;;2.00;0.93;;;;;;;1.12;83.18;99160.88;5028087;28;20194;-75
2021/01/25 07:34:16;;;;;;;0.90;0.90;;;;;;;1.27;82.93;99181.19;5031282;28;20207;-75
2021/01/25 07:36:44;;;;;;;0.60;0.60;;;;;;;1.22;82.71;99183.22;5027047;28;20227;-75
2021/01/25 07:39:14;;;;;;;4.57;0.80;;;;;;;1.20;82.79;99187.72;5028462;28;20232;-75
2021/01/25 07:41:42;;;;;;;0.70;0.70;;;;;;;1.21;82.77;99198.22;5027584;28;20208;-75
2021/01/25 07:44:13;;;;;;;0.57;0.57;;;;;;;1.19;82.04;99209.81;5024254;28;20208;-75
2021/01/25 07:46:43;;;;;;;0.80;0.70;;;;;;;1.19;82.99;99196.59;5030914;28;20651;-75
2021/01/25 07:49:12;;;;;;;0.57;0.57;;;;;;;1.18;82.14;99202.81;5030241;28;20225;-75
2021/01/25 07:51:40;;;;;;;1.00;0.70;;;;;;;1.05;82.25;99183.28;5030312;28;20217;-75
2021/01/25 07:54:14;;;;;;;1.00;0.67;;;;;;;1.14;82.45;99204.78;5030348;28;20200;-75
2021/01/25 07:56:42;;;;;;;0.63;0.63;;;;;;;1.29;82.59;99203.09;5030076;28;20311;-75
2021/01/25 07:59:14;;;;;;;0.60;0.60;;;;;;;1.23;82.00;99214.88;5029933;28;20208;-75
2021/01/25 08:01:49;;;;;;;1.23;0.70;;;;;;;1.22;82.02;99204.34;5031063;28;20203;-74
2021/01/25 08:04:20;;;;;;;1.00;0.60;;;;;;;1.19;82.54;99202.75;5031324;28;20758;-75
2021/01/25 08:06:48;;;;;;;0.73;0.67;;;;;;;1.26;82.42;99216.50;5029925;28;20233;-75
2021/01/25 08:09:18;;;;;;;0.70;0.70;;;;;;;1.27;82.78;99210.28;5029857;28;20291;-75
2021/01/25 08:11:46;;;;;;;0.77;0.77;;;;;;;1.23;82.51;99212.22;5030997;28;20198;-74
2021/01/25 08:14:38;;;;;;;1.17;1.07;;;;;;;1.21;83.02;99218.50;5029237;28;20240;-74
2021/01/25 08:17:07;;;;;;;18.60;8.10;;;;;;;1.19;83.11;99212.47;5031018;28;20311;-75
2021/01/25 08:19:40;;;;;;;1.13;1.00;;;;;;;0.87;82.85;99163.97;5030313;28;20212;-75
2021/01/25 08:22:14;;;;;;;0.80;0.80;;;;;;;1.15;83.35;99224.13;5031113;28;20204;-75
2021/01/25 08:24:42;;;;;;;1.83;1.53;;;;;;;1.23;83.34;99224.59;5030855;28;20208;-74
2021/01/25 08:27:14;;;;;;;4.83;0.70;;;;;;;1.07;83.33;99194.63;5031049;28;20226;-75
2021/01/25 08:29:46;;;;;;;0.97;0.93;;;;;;;1.27;82.90;99218.22;5030576;28;20205;-75
2021/01/25 08:32:15;;;;;;;1.17;1.07;;;;;;;1.33;83.01;99215.22;5030871;28;20664;-75
2021/01/25 08:34:42;;;;;;;0.70;0.70;;;;;;;1.40;82.82;99219.22;5031097;28;20761;-75
2021/01/25 08:37:12;;;;;;;1.67;0.90;;;;;;;1.43;83.02;99219.06;5030759;28;20248;-75
2021/01/25 08:39:42;;;;;;;5.10;0.90;;;;;;;1.38;82.95;99205.25;5030454;28;20571;-74
2021/01/25 08:42:14;;;;;;;0.90;0.90;;;;;;;1.48;82.61;99222.28;5030854;28;20717;-75
2021/01/25 08:44:47;;;;;;;2.93;1.30;;;;;;;1.54;83.35;99224.63;5029229;28;20653;-75
2021/01/25 08:47:18;;;;;;;0.80;0.80;;;;;;;1.30;82.58;99199.53;5030717;28;20568;-75
2021/01/25 08:49:45;;;;;;;2.07;0.87;;;;;;;1.50;82.25;99225.69;5030329;28;20200;-75
2021/01/25 08:52:26;;;;;;;3.47;0.77;;;;;;;1.40;81.58;99221.88;5029567;28;20202;-75
2021/01/25 08:55:05;;;;;;;0.60;0.60;;;;;;;1.39;82.08;99216.66;5030295;28;20206;-75
2021/01/25 08:57:35;;;;;;;0.73;0.73;;;;;;;1.29;82.74;99205.75;5030370;28;20203;-75
2021/01/25 09:00:11;;;;;;;0.80;0.67;;;;;;;1.33;82.17;99225.78;5030187;28;20188;-75
2021/01/25 09:02:38;;;;;;;1.00;0.80;;;;;;;1.34;81.84;99219.56;5030252;28;20204;-75
2021/01/25 09:05:08;;;;;;;0.83;0.70;;;;;;;1.34;82.34;99214.28;5030453;28;20200;-75
2021/01/25 09:07:36;;;;;;;0.73;0.60;;;;;;;1.33;81.94;99224.94;5030259;28;20201;-75
2021/01/25 09:10:04;;;;;;;0.67;0.67;;;;;;;1.36;82.19;99222.13;5029926;28;20233;-75
2021/01/25 09:12:32;;;;;;;1.40;0.70;;;;;;;1.38;82.68;99226.38;5027141;28;20213;-75
2021/01/25 09:14:59;;;;;;;0.60;0.60;;;;;;;1.41;82.50;99231.50;5030224;28;20287;-75
2021/01/25 09:17:27;;;;;;;0.70;0.70;;;;;;;1.43;82.69;99229.63;5028747;28;20324;-75
2021/01/25 09:19:54;;;;;;;0.47;0.47;;;;;;;1.43;82.32;99221.69;5030051;28;20213;-75
2021/01/25 09:22:21;;;;;;;0.67;0.67;;;;;;;1.36;82.17;99228.28;5030135;28;20216;-75
2021/01/25 09:24:49;;;;;;;1.07;0.87;;;;;;;1.30;81.95;99222.47;5030091;28;20679;-75
2021/01/25 09:27:16;;;;;;;1.83;0.80;;;;;;;1.39;82.67;99228.09;5030446;28;20200;-75
2021/01/25 09:29:43;;;;;;;0.60;0.60;;;;;;;1.43;82.59;99228.78;5031689;28;20194;-75
2021/01/25 09:32:10;;;;;;;0.53;0.53;;;;;;;1.35;82.05;99226.56;5034303;28;20287;-75
2021/01/25 09:34:38;;;;;;;0.80;0.80;;;;;;;1.35;82.68;99231.00;5034242;28;20210;-75
2021/01/25 09:37:07;;;;;;;0.60;0.60;;;;;;;1.43;82.92;99232.28;5032768;28;20225;-75
2021/01/25 09:39:34;;;;;;;0.97;0.90;;;;;;;1.39;82.45;99230.75;5033980;28;20205;-75
2021/01/25 09:42:02;;;;;;;0.93;0.60;;;;;;;1.47;83.10;99223.22;5030032;28;20201;-75
2021/01/25 09:44:29;;;;;;;1.17;0.50;;;;;;;1.42;83.24;99235.84;5034439;28;20577;-75
2021/01/25 09:46:56;;;;;;;0.53;0.50;;;;;;;0.87;82.93;99148.97;5033676;28;20203;-75
2021/01/25 09:49:24;;;;;;;0.80;0.80;;;;;;;1.40;83.63;99224.50;5034267;28;20206;-75
2021/01/25 09:51:52;;;;;;;0.87;0.63;;;;;;;1.32;82.88;99205.59;5031960;28;20211;-75
2021/01/25 09:54:19;;;;;;;4.40;0.90;;;;;;;1.38;83.67;99236.97;5033388;28;20607;-75
2021/01/25 09:56:47;;;;;;;0.87;0.87;;;;;;;1.50;83.89;99241.56;5033448;28;20228;-75
2021/01/25 09:59:14;;;;;;;0.50;0.50;;;;;;;1.49;83.29;99239.00;5033766;28;20753;-75
2021/01/25 10:01:41;;;;;;;2.10;0.87;;;;;;;1.52;83.30;99242.34;5032575;28;20264;-75
2021/01/25 10:04:09;;;;;;;0.57;0.57;;;;;;;1.61;83.44;99242.78;5030457;28;20210;-75
2021/01/25 10:06:36;;;;;;;3.13;0.83;;;;;;;1.61;83.31;99240.16;5033837;28;20214;-75
2021/01/25 10:09:05;;;;;;;0.60;0.60;;;;;;;1.66;83.36;99246.88;5033413;28;20593;-75
2021/01/25 10:11:33;;;;;;;0.63;0.63;;;;;;;1.64;83.34;99240.81;5032623;28;20199;-75
2021/01/25 10:14:00;;;;;;;5.00;0.97;;;;;;;1.55;83.19;99242.19;5025078;28;20776;-75
2021/01/25 10:16:27;;;;;;;4.67;0.90;;;;;;;1.42;82.55;99224.44;5025111;28;20209;-75
2021/01/25 10:18:55;;;;;;;0.53;0.53;;;;;;;1.58;83.32;99238.53;5033118;28;20201;-75
2021/01/25 10:21:22;;;;;;;0.77;0.60;;;;;;;1.50;83.25;99220.41;5033188;28;20213;-75
2021/01/25 10:23:50;;;;;;;0.70;0.70;;;;;;;1.64;83.38;99237.31;5030959;28;20206;-75
2021/01/25 10:26:20;;;;;;;1.97;0.93;;;;;;;1.56;83.15;99243.06;5033021;28;20248;-75
2021/01/25 10:28:47;;;;;;;1.30;0.70;;;;;;;1.51;83.31;99243.28;5033191;28;20195;-75
2021/01/25 10:31:15;;;;;;;0.63;0.63;;;;;;;1.61;83.14;99237.50;5033061;28;20556;-75
2021/01/25 10:33:42;;;;;;;0.80;0.80;;;;;;;1.18;82.91;99182.53;5031784;28;20209;-75
2021/01/25 10:36:10;;;;;;;2.90;1.20;;;;;;;1.50;83.13;99241.56;5032975;28;20223;-75
2021/01/25 10:38:37;;;;;;;0.70;0.70;;;;;;;1.47;82.44;99235.59;5033015;28;20201;-75
2021/01/25 10:41:05;;;;;;;0.90;0.90;;;;;;;1.60;82.11;99246.38;5031986;28;20206;-75
2021/01/25 10:43:33;;;;;;;0.83;0.80;;;;;;;1.55;82.23;99250.13;5019070;28;20221;-75
2021/01/25 10:46:00;;;;;;;4.37;1.07;;;;;;;1.65;82.22;99250.47;5031712;28;20201;-75
2021/01/25 10:48:28;;;;;;;0.87;0.83;;;;;;;1.63;82.25;99251.50;5032046;28;20278;-75
2021/01/25 10:50:55;;;;;;;1.60;0.73;;;;;;;1.68;81.99;99252.94;5032741;28;20194;-75
2021/01/25 10:53:22;;;;;;;1.10;0.87;;;;;;;1.63;81.40;99252.34;5032640;28;20706;-75
2021/01/25 10:55:49;;;;;;;1.10;0.83;;;;;;;1.65;81.79;99254.91;5032207;28;20229;-75
2021/01/25 10:58:17;;;;;;;0.80;0.80;;;;;;;1.22;80.55;99207.00;5031133;28;20290;-76
2021/01/25 11:00:45;;;;;;;1.17;0.93;;;;;;;1.36;81.83;99217.69;5030623;28;20205;-75
2021/01/25 11:03:12;;;;;;;0.63;0.63;;;;;;;1.64;81.51;99254.06;5031796;28;20535;-75
2021/01/25 11:05:40;;;;;;;0.80;0.80;;;;;;;1.53;81.43;99257.31;5031801;28;20205;-75
2021/01/25 11:08:07;;;;;;;2.17;0.80;;;;;;;1.57;81.33;99265.06;5030369;28;20356;-75
2021/01/25 11:10:34;;;;;;;0.60;0.60;;;;;;;1.64;80.86;99264.63;5031319;28;20202;-75
2021/01/25 11:13:01;;;;;;;1.53;1.23;;;;;;;1.68;81.24;99273.25;5031742;28;20248;-75
2021/01/25 11:15:28;;;;;;;0.80;0.80;;;;;;;1.65;81.38;99260.19;5032429;28;20207;-75
2021/01/25 11:17:57;;;;;;;0.70;0.70;;;;;;;1.73;81.21;99265.91;5032091;28;20210;-75
2021/01/25 11:20:26;;;;;;;0.47;0.47;;;;;;;1.68;80.50;99271.47;5032407;28;20205;-75
2021/01/25 11:22:53;;;;;;;1.77;0.83;;;;;;;1.80;81.48;99275.22;5028870;28;20697;-75
2021/01/25 11:25:20;;;;;;;0.73;0.73;;;;;;;1.73;80.37;99272.06;5032460;28;20203;-75
2021/01/25 11:27:47;;;;;;;0.70;0.70;;;;;;;1.65;81.30;99265.50;5031901;28;20596;-75
2021/01/25 11:30:15;;;;;;;138.70;85.40;;;;;;;1.66;79.99;99276.00;5031988;28;20282;-75
2021/01/25 11:32:43;;;;;;;17.83;9.07;;;;;;;1.64;80.66;99277.00;5031711;28;20225;-75
2021/01/25 11:35:12;;;;;;;1.17;1.10;;;;;;;1.66;80.27;99277.78;5032223;28;20664;-75
2021/01/25 11:37:39;;;;;;;5.50;0.90;;;;;;;1.66;81.12;99281.28;5030819;28;20227;-75
2021/01/25 11:40:08;;;;;;;0.93;0.93;;;;;;;1.63;80.63;99280.59;5030118;28;20200;-75
2021/01/25 11:42:35;;;;;;;3.03;1.10;;;;;;;1.69;80.57;99281.09;5031799;28;20296;-75
2021/01/25 11:45:03;;;;;;;1.73;1.00;;;;;;;1.80;80.38;99288.44;5031568;28;20197;-75
2021/01/25 11:47:31;;;;;;;2.07;0.90;;;;;;;1.76;80.43;99284.25;5032039;28;20200;-75